Time;durP1;ratioP1;P1;durP2;ratioP2;P2;SDS_P1;SDS_P2;PMS_P1;PMS_P2;Temp;Humidity;BMP_temperature;BMP_pressure;BME280_temperature;BME280_humidity;BME280_pressure;Samples;Min_cycle;Max_cycle;Signal;HPM_P1;HPM_P2
2022/01/24 00:00:07;;;;;;;11.35;8.75;;;5.90;99.90;;;;;;4988146;28;20075;-67
2022/01/24 00:02:33;;;;;;;12.43;8.95;;;5.90;99.90;;;;;;4985137;28;20069;-67
2022/01/24 00:04:59;;;;;;;13.63;9.35;;;5.80;99.90;;;;;;4979268;28;20051;-67
2022/01/24 00:07:25;;;;;;;12.07;8.85;;;5.80;99.90;;;;;;4974507;28;20074;-67
2022/01/24 00:09:54;;;;;;;13.52;9.27;;;5.80;99.90;;;;;;4969510;28;20055;-67
2022/01/24 00:12:31;;;;;;;12.20;8.88;;;5.80;99.90;;;;;;4977031;28;20427;-67
2022/01/24 00:17:41;;;;;;;13.85;8.65;;;5.90;99.90;;;;;;5005749;28;20057;-67
2022/01/24 00:28:22;;;;;;;14.13;9.40;;;5.90;99.90;;;;;;5127480;28;20039;-67
2022/01/24 00:30:48;;;;;;;13.80;8.98;;;5.80;99.90;;;;;;5133177;27;20039;-67
2022/01/24 00:33:15;;;;;;;15.35;9.60;;;5.80;99.90;;;;;;5127432;27;20476;-67
2022/01/24 00:35:41;;;;;;;14.15;10.32;;;5.80;99.90;;;;;;5109165;28;20047;-67
2022/01/24 00:38:07;;;;;;;14.50;9.82;;;5.80;99.90;;;;;;5102650;28;20052;-67
2022/01/24 00:40:36;;;;;;;18.13;11.15;;;5.80;99.90;;;;;;5142395;27;20036;-67
2022/01/24 00:43:06;;;;;;;13.55;10.38;;;5.70;99.90;;;;;;5126030;28;20051;-67
2022/01/24 00:48:22;;;;;;;18.88;12.05;;;5.80;99.90;;;;;;5108147;28;20047;-67
2022/01/24 00:56:14;;;;;;;18.40;12.73;;;5.90;99.90;;;;;;5138154;27;20126;-67
2022/01/24 00:58:40;;;;;;;17.08;11.27;;;5.90;99.90;;;;;;5141677;27;20090;-67
2022/01/24 01:01:06;;;;;;;17.45;11.25;;;6.00;99.90;;;;;;5107221;28;20051;-67
2022/01/24 01:03:32;;;;;;;19.40;11.52;;;6.10;99.90;;;;;;5107685;28;20052;-67
2022/01/24 01:06:09;;;;;;;16.15;11.02;;;6.20;99.90;;;;;;5108557;28;20038;-67
2022/01/24 01:19:40;;;;;;;18.65;12.88;;;6.30;99.90;;;;;;5136919;27;20445;-67
2022/01/24 01:22:06;;;;;;;19.02;13.98;;;6.20;99.90;;;;;;5106825;28;20416;-67
2022/01/24 01:24:37;;;;;;;20.17;14.52;;;6.20;99.90;;;;;;5105668;28;20051;-67
2022/01/24 01:27:09;;;;;;;22.40;15.18;;;6.00;99.90;;;;;;5102483;28;20044;-67
2022/01/24 01:29:49;;;;;;;20.48;14.73;;;5.90;99.90;;;;;;5103694;28;20107;-67
2022/01/24 01:54:13;;;;;;;20.58;14.40;;;5.80;99.90;;;;;;5039806;28;20594;-67
2022/01/24 01:56:41;;;;;;;22.77;14.05;;;5.80;99.90;;;;;;5062192;28;20052;-67
2022/01/24 01:59:07;;;;;;;23.55;15.70;;;5.70;99.90;;;;;;5062361;28;20049;-67
2022/01/24 02:01:33;;;;;;;21.13;14.50;;;5.70;99.90;;;;;;5045373;28;20059;-67
2022/01/24 02:04:02;;;;;;;19.02;14.35;;;5.70;99.90;;;;;;5061961;28;20507;-67
2022/01/24 02:06:29;;;;;;;23.63;14.50;;;5.60;99.90;;;;;;5046319;28;20075;-67
2022/01/24 02:09:07;;;;;;;19.00;14.07;;;5.50;99.90;;;;;;5028407;28;20060;-67
2022/01/24 02:11:33;;;;;;;20.60;13.40;;;5.50;99.90;;;;;;5045898;28;20052;-67
2022/01/24 02:14:04;;;;;;;21.45;13.82;;;5.40;99.90;;;;;;5060246;28;20059;-67
2022/01/24 02:19:17;;;;;;;19.58;14.13;;;5.60;99.90;;;;;;5105690;28;20131;-67
2022/01/24 02:22:40;;;;;;;19.30;14.05;;;5.60;99.90;;;;;;5103096;28;20047;-67
2022/01/24 02:24:43;;;;;;;19.17;13.02;;;5.60;99.90;;;;;;5115803;28;20040;-67
2022/01/24 02:27:10;;;;;;;19.52;13.35;;;5.60;99.90;;;;;;5106716;28;20048;-67
2022/01/24 02:30:12;;;;;;;18.27;13.00;;;5.60;99.90;;;;;;5113413;28;20471;-67
2022/01/24 02:32:39;;;;;;;17.50;12.40;;;5.60;99.90;;;;;;5124642;28;20064;-67
2022/01/24 02:35:07;;;;;;;17.23;12.63;;;5.60;99.90;;;;;;5100462;28;20075;-67
2022/01/24 02:37:32;;;;;;;18.08;12.60;;;5.60;99.90;;;;;;5103918;28;20044;-67
2022/01/24 02:40:12;;;;;;;20.38;14.82;;;5.60;99.90;;;;;;5107260;28;20065;-67
2022/01/24 02:48:27;;;;;;;17.95;12.48;;;5.60;99.90;;;;;;5105466;28;20063;-67
2022/01/24 02:53:40;;;;;;;20.13;13.23;;;5.60;99.90;;;;;;5100708;28;20085;-67
2022/01/24 02:56:06;;;;;;;17.92;12.77;;;5.50;99.90;;;;;;5123678;28;20131;-67
2022/01/24 02:58:33;;;;;;;20.02;13.43;;;5.50;99.90;;;;;;5113312;28;20052;-67
2022/01/24 03:01:00;;;;;;;16.08;12.15;;;5.60;99.90;;;;;;5117568;28;20099;-67
2022/01/24 03:03:25;;;;;;;18.90;13.70;;;5.50;99.90;;;;;;5124286;28;20048;-67
2022/01/24 03:05:51;;;;;;;16.35;12.25;;;5.40;99.90;;;;;;5124208;28;20053;-67
2022/01/24 03:08:20;;;;;;;18.30;13.15;;;5.40;99.90;;;;;;5119732;28;20453;-67
2022/01/24 03:10:47;;;;;;;23.02;15.40;;;5.40;99.90;;;;;;5119747;28;20047;-67
2022/01/24 03:15:56;;;;;;;19.08;14.85;;;5.40;99.90;;;;;;5125050;28;20475;-67
2022/01/24 03:18:22;;;;;;;21.85;14.88;;;5.40;99.90;;;;;;5157778;27;20046;-67
2022/01/24 03:20:49;;;;;;;20.65;14.80;;;5.30;99.90;;;;;;5104305;28;20043;-67
2022/01/24 03:23:17;;;;;;;17.75;14.23;;;5.40;99.90;;;;;;5095675;28;20044;-67
2022/01/24 03:25:43;;;;;;;20.33;14.70;;;5.40;99.90;;;;;;5116821;28;20128;-67
2022/01/24 03:28:09;;;;;;;19.65;14.52;;;5.40;99.90;;;;;;5124827;28;20051;-67
2022/01/24 03:30:36;;;;;;;20.10;14.85;;;5.50;99.90;;;;;;5120573;28;20055;-67
2022/01/24 03:33:04;;;;;;;21.17;15.30;;;5.50;99.90;;;;;;5117111;28;20078;-67
2022/01/24 03:35:30;;;;;;;20.75;14.85;;;5.50;99.90;;;;;;5123484;28;20065;-66
2022/01/24 03:37:56;;;;;;;19.95;14.48;;;5.50;99.90;;;;;;5116061;28;20054;-67
2022/01/24 03:40:21;;;;;;;20.23;14.07;;;5.50;99.90;;;;;;5124467;28;20032;-67
2022/01/24 03:42:48;;;;;;;22.42;16.45;;;5.50;99.90;;;;;;5123401;28;20047;-67
2022/01/24 03:45:15;;;;;;;20.58;15.10;;;5.50;99.90;;;;;;5124128;28;20217;-67
2022/01/24 03:48:06;;;;;;;21.92;15.77;;;5.40;99.90;;;;;;5115339;28;20046;-67
2022/01/24 03:50:26;;;;;;;21.63;15.25;;;5.40;99.90;;;;;;5125499;28;20098;-67
2022/01/24 03:52:53;;;;;;;21.95;15.88;;;5.40;99.90;;;;;;5119218;28;20043;-67
2022/01/24 03:55:19;;;;;;;21.52;15.77;;;5.30;99.90;;;;;;5123613;27;20527;-67
2022/01/24 03:57:45;;;;;;;21.38;15.68;;;5.40;99.90;;;;;;5126135;28;20051;-67
2022/01/24 04:00:11;;;;;;;22.88;16.75;;;5.40;99.90;;;;;;5107079;28;20449;-67
2022/01/24 04:02:37;;;;;;;22.30;15.80;;;5.40;99.90;;;;;;5126238;28;20052;-67
2022/01/24 04:05:03;;;;;;;20.80;15.93;;;5.30;99.90;;;;;;5127157;28;20075;-67
2022/01/24 04:07:28;;;;;;;22.83;16.05;;;5.40;99.90;;;;;;5125220;28;20054;-67
2022/01/24 04:09:54;;;;;;;20.58;15.10;;;5.40;99.90;;;;;;5128079;28;20122;-67
2022/01/24 04:12:24;;;;;;;22.33;16.80;;;5.40;99.90;;;;;;5161315;27;20051;-67
2022/01/24 04:22:34;;;;;;;22.75;15.93;;;5.40;99.90;;;;;;5160721;27;20080;-67
2022/01/24 04:25:03;;;;;;;20.00;15.88;;;5.40;99.90;;;;;;5158040;27;20407;-67
2022/01/24 04:27:29;;;;;;;22.05;15.43;;;5.40;99.90;;;;;;5125862;28;20062;-67
2022/01/24 04:29:56;;;;;;;21.70;15.13;;;5.50;99.90;;;;;;5126525;28;20047;-67
2022/01/24 04:32:22;;;;;;;23.67;16.52;;;5.50;99.90;;;;;;5126152;28;20091;-67
2022/01/24 04:34:48;;;;;;;22.27;16.25;;;5.60;99.90;;;;;;5114453;28;20040;-67
2022/01/24 04:37:15;;;;;;;22.40;15.65;;;5.60;99.90;;;;;;5116853;28;20043;-67
2022/01/24 04:39:43;;;;;;;21.10;15.90;;;5.70;99.90;;;;;;5122624;28;20446;-67
2022/01/24 04:42:14;;;;;;;21.90;16.20;;;5.80;99.90;;;;;;5125500;28;20055;-67
2022/01/24 04:52:56;;;;;;;20.90;14.35;;;5.60;99.90;;;;;;5135099;27;20082;-67
2022/01/24 04:55:21;;;;;;;;;;;5.50;99.90;;;;;;5121444;28;20152;-67
2022/01/24 04:57:47;;;;;;;20.33;14.15;;;5.50;99.90;;;;;;5127260;28;19920;-67
2022/01/24 05:00:14;;;;;;;20.73;15.30;;;5.50;99.90;;;;;;5126005;28;20047;-67
2022/01/24 05:02:40;;;;;;;20.92;15.68;;;5.60;99.90;;;;;;5159276;27;20073;-67
2022/01/24 05:05:08;;;;;;;20.98;15.50;;;5.60;99.90;;;;;;5124878;28;20115;-67
2022/01/24 05:07:34;;;;;;;20.13;14.27;;;5.50;99.90;;;;;;5100701;28;20054;-67
2022/01/24 05:10:09;;;;;;;23.13;15.35;;;5.50;99.90;;;;;;5121695;28;20065;-67
2022/01/24 05:23:35;;;;;;;19.10;13.95;;;5.60;99.90;;;;;;5125746;28;20047;-67
2022/01/24 05:26:03;;;;;;;20.05;14.20;;;5.50;99.90;;;;;;5099975;28;20088;-67
2022/01/24 05:28:30;;;;;;;20.92;15.07;;;5.60;99.90;;;;;;5141878;27;20072;-67
2022/01/24 05:30:58;;;;;;;19.48;14.50;;;5.50;99.90;;;;;;5106911;28;20325;-66
2022/01/24 05:33:24;;;;;;;18.38;14.30;;;5.50;99.90;;;;;;5122085;28;20283;-66
2022/01/24 05:35:50;;;;;;;20.38;14.55;;;5.50;99.90;;;;;;5123449;28;20461;-68
2022/01/24 05:38:17;;;;;;;19.02;14.13;;;5.60;99.90;;;;;;5125194;28;20294;-66
2022/01/24 05:40:43;;;;;;;18.63;13.40;;;5.50;99.90;;;;;;5118153;27;20052;-66
2022/01/24 05:43:09;;;;;;;17.63;13.80;;;5.60;99.90;;;;;;5114500;27;20044;-68
2022/01/24 05:45:36;;;;;;;20.13;13.55;;;5.60;99.90;;;;;;5118108;27;20043;-68
2022/01/24 05:48:03;;;;;;;18.27;13.30;;;5.60;99.90;;;;;;5102577;28;20075;-69
2022/01/24 05:50:28;;;;;;;18.52;14.02;;;5.60;99.90;;;;;;5099254;28;20044;-67
2022/01/24 05:52:54;;;;;;;16.25;11.73;;;5.60;99.90;;;;;;5116620;28;20058;-67
2022/01/24 05:55:20;;;;;;;13.75;10.15;;;5.80;99.90;;;;;;5116475;27;20047;-67
2022/01/24 05:57:46;;;;;;;14.95;10.52;;;5.80;99.90;;;;;;5129564;27;20532;-67
2022/01/24 06:00:13;;;;;;;15.15;11.00;;;5.80;99.90;;;;;;5111867;27;20047;-69
2022/01/24 06:02:39;;;;;;;15.55;12.23;;;5.70;99.90;;;;;;5131690;27;20054;-66
2022/01/24 06:05:05;;;;;;;17.33;12.73;;;5.80;99.90;;;;;;5114338;27;20066;-66
2022/01/24 06:07:31;;;;;;;18.67;13.77;;;5.90;99.90;;;;;;5130214;27;20043;-66
2022/01/24 06:09:56;;;;;;;17.65;12.63;;;5.90;99.90;;;;;;5110842;27;20131;-67
2022/01/24 06:12:23;;;;;;;17.48;13.27;;;5.80;99.90;;;;;;5134167;27;20046;-67
2022/01/24 06:14:49;;;;;;;16.58;12.75;;;5.80;99.90;;;;;;5142358;27;20040;-68
2022/01/24 06:17:17;;;;;;;17.17;12.65;;;5.90;99.90;;;;;;5113006;28;20096;-66
2022/01/24 06:19:43;;;;;;;16.73;12.73;;;5.80;99.90;;;;;;5133773;27;20062;-66
2022/01/24 06:22:09;;;;;;;20.17;14.82;;;5.70;99.90;;;;;;5122245;27;20036;-67
2022/01/24 06:24:34;;;;;;;21.83;15.82;;;5.50;99.90;;;;;;5116263;28;20482;-67
2022/01/24 06:27:00;;;;;;;24.33;16.92;;;5.50;99.90;;;;;;5124612;27;20116;-66
2022/01/24 06:29:26;;;;;;;23.95;18.05;;;5.40;99.90;;;;;;5149570;27;20096;-67
2022/01/24 06:31:51;;;;;;;21.70;14.48;;;5.40;99.90;;;;;;5109402;27;20047;-67
2022/01/24 06:34:17;;;;;;;20.17;14.93;;;5.50;99.90;;;;;;5114704;28;20065;-66
2022/01/24 06:36:43;;;;;;;20.02;14.93;;;5.50;99.90;;;;;;5138362;27;20086;-66
2022/01/24 06:39:11;;;;;;;20.42;15.48;;;5.50;99.90;;;;;;5115747;28;20043;-66
2022/01/24 06:41:37;;;;;;;20.63;15.43;;;5.60;99.90;;;;;;5144346;27;20058;-66
2022/01/24 06:44:03;;;;;;;21.35;15.57;;;5.60;99.90;;;;;;5117578;28;20418;-66
2022/01/24 06:46:30;;;;;;;23.42;17.30;;;5.50;99.90;;;;;;5123098;27;20489;-67
2022/01/24 06:48:56;;;;;;;28.65;19.73;;;5.50;99.90;;;;;;5100532;28;20100;-66
2022/01/24 06:51:22;;;;;;;29.05;20.98;;;5.60;99.90;;;;;;5108629;28;20047;-66
2022/01/24 06:53:48;;;;;;;31.35;20.92;;;5.50;99.90;;;;;;5131624;28;20604;-67
2022/01/24 06:56:15;;;;;;;33.15;21.30;;;5.60;99.90;;;;;;5123747;27;20106;-66
2022/01/24 06:58:41;;;;;;;29.75;20.00;;;5.60;99.90;;;;;;5113747;28;20040;-66
2022/01/24 07:01:07;;;;;;;34.50;22.73;;;5.50;99.90;;;;;;5124950;28;20370;-66
2022/01/24 07:03:33;;;;;;;33.40;22.38;;;5.50;99.90;;;;;;5115230;28;20067;-67
2022/01/24 07:06:00;;;;;;;33.80;22.10;;;5.50;99.90;;;;;;5117659;27;20046;-66
2022/01/24 07:08:26;;;;;;;32.22;22.58;;;5.50;99.90;;;;;;5106799;28;20048;-66
2022/01/24 07:10:52;;;;;;;33.15;22.15;;;5.50;99.90;;;;;;5117792;27;20054;-66
2022/01/24 07:13:20;;;;;;;32.67;22.55;;;5.50;99.90;;;;;;5123687;28;20044;-66
2022/01/24 07:15:50;;;;;;;35.17;23.63;;;5.50;99.90;;;;;;5113547;27;20170;-66
2022/01/24 07:20:58;;;;;;;33.22;20.73;;;5.50;99.90;;;;;;5143336;27;19980;-65
2022/01/24 07:23:24;;;;;;;30.00;21.58;;;5.60;99.90;;;;;;5110184;28;20054;-65
2022/01/24 07:25:50;;;;;;;33.45;21.73;;;5.60;99.90;;;;;;5117717;27;20133;-65
2022/01/24 07:28:16;;;;;;;34.47;22.88;;;5.60;99.90;;;;;;5128183;27;20066;-65
2022/01/24 07:30:42;;;;;;;32.20;21.48;;;5.60;99.90;;;;;;5096415;27;20054;-64
2022/01/24 07:33:08;;;;;;;33.75;23.05;;;5.60;99.90;;;;;;5112836;28;20040;-65
2022/01/24 07:35:34;;;;;;;43.03;27.38;;;5.60;99.90;;;;;;5116391;27;20062;-65
2022/01/24 07:38:00;;;;;;;42.58;26.77;;;5.60;99.90;;;;;;5144931;27;20070;-65
2022/01/24 07:40:26;;;;;;;45.03;27.35;;;5.80;99.90;;;;;;5117150;27;20062;-65
2022/01/24 07:42:56;;;;;;;41.10;26.20;;;6.00;99.90;;;;;;5131851;27;20137;-65
2022/01/24 07:45:25;;;;;;;49.45;28.63;;;5.90;99.90;;;;;;5115194;27;20112;-65
2022/01/24 07:47:51;;;;;;;47.40;28.77;;;5.90;99.90;;;;;;5134938;27;20046;-65
2022/01/24 07:50:19;;;;;;;47.75;28.38;;;5.90;99.90;;;;;;5106615;27;20055;-65
2022/01/24 07:52:45;;;;;;;51.25;29.15;;;5.90;99.90;;;;;;5138879;27;20077;-64
2022/01/24 07:55:11;;;;;;;44.97;28.42;;;5.90;99.90;;;;;;5107469;27;20070;-64
2022/01/24 07:57:37;;;;;;;44.33;28.42;;;5.90;99.90;;;;;;5149879;27;20052;-64
2022/01/24 08:00:05;;;;;;;50.15;30.08;;;5.80;99.90;;;;;;5114264;28;20362;-65
2022/01/24 08:02:31;;;;;;;49.17;29.58;;;5.90;99.90;;;;;;5131273;27;20116;-65
2022/01/24 08:04:56;;;;;;;42.25;25.90;;;5.90;99.90;;;;;;5118453;28;20079;-64
2022/01/24 08:07:22;;;;;;;44.38;26.85;;;5.90;99.90;;;;;;5142741;27;20081;-64
2022/01/24 08:09:48;;;;;;;43.78;26.80;;;6.00;99.90;;;;;;5115229;28;20169;-64
2022/01/24 08:12:13;;;;;;;47.38;28.60;;;5.80;99.90;;;;;;5145909;27;20153;-64
2022/01/24 08:14:39;;;;;;;49.80;29.83;;;5.80;99.90;;;;;;5117373;28;20054;-64
2022/01/24 08:17:04;;;;;;;43.58;27.92;;;5.70;99.90;;;;;;5127593;27;20125;-64
2022/01/24 08:19:33;;;;;;;43.65;27.02;;;5.50;99.90;;;;;;5119090;27;20047;-64
2022/01/24 08:21:59;;;;;;;42.05;25.60;;;5.50;99.90;;;;;;5135561;27;20048;-64
2022/01/24 08:24:25;;;;;;;46.45;27.60;;;5.50;99.90;;;;;;5102850;28;20067;-65
2022/01/24 08:26:50;;;;;;;45.90;28.15;;;5.50;99.90;;;;;;5139298;27;20575;-64
2022/01/24 08:29:16;;;;;;;46.78;28.20;;;5.50;99.90;;;;;;5121942;27;20111;-64
2022/01/24 08:31:42;;;;;;;52.60;31.27;;;5.50;99.90;;;;;;5115913;27;20076;-64
2022/01/24 08:34:07;;;;;;;50.28;31.45;;;5.60;99.90;;;;;;5120970;27;20054;-64
2022/01/24 08:36:34;;;;;;;53.25;32.10;;;5.60;99.90;;;;;;5122361;27;20100;-64
2022/01/24 08:39:06;;;;;;;47.53;29.45;;;5.60;99.90;;;;;;5128626;27;20043;-64
2022/01/24 08:47:13;;;;;;;49.80;29.73;;;5.60;99.90;;;;;;5030662;28;20134;-64
2022/01/24 08:49:39;;;;;;;50.95;30.38;;;5.60;99.90;;;;;;5046225;28;20056;-64
2022/01/24 08:52:05;;;;;;;52.38;31.42;;;5.70;99.90;;;;;;5078463;28;20067;-64
2022/01/24 08:54:31;;;;;;;54.67;31.55;;;5.60;99.90;;;;;;5068916;28;20060;-64
2022/01/24 08:56:56;;;;;;;47.72;29.83;;;5.60;99.90;;;;;;5079540;28;20056;-64
2022/01/24 08:59:22;;;;;;;56.55;33.50;;;5.60;99.90;;;;;;5052528;28;20218;-64
2022/01/24 09:01:48;;;;;;;54.65;33.30;;;5.50;99.90;;;;;;5048282;28;20041;-65
2022/01/24 09:04:14;;;;;;;55.03;33.17;;;5.50;99.90;;;;;;5057428;28;20230;-65
2022/01/24 09:06:40;;;;;;;54.35;33.00;;;5.50;99.90;;;;;;5062142;28;20121;-65
2022/01/24 09:09:06;;;;;;;55.83;33.50;;;5.60;99.90;;;;;;5057648;28;20057;-65
2022/01/24 09:11:34;;;;;;;58.17;37.13;;;5.60;99.90;;;;;;5058288;28;20045;-65
2022/01/24 09:14:00;;;;;;;62.08;37.15;;;5.60;99.90;;;;;;5070871;28;20063;-65
2022/01/24 09:16:27;;;;;;;56.17;35.47;;;5.50;99.90;;;;;;5067842;28;20200;-66
2022/01/24 09:18:53;;;;;;;43.35;28.90;;;5.50;99.90;;;;;;5055359;28;20048;-65
2022/01/24 09:21:20;;;;;;;48.67;31.27;;;5.50;99.90;;;;;;5091189;27;20342;-65
2022/01/24 09:23:46;;;;;;;51.40;32.25;;;5.60;99.90;;;;;;5126034;27;20072;-65
2022/01/24 09:26:13;;;;;;;55.30;34.65;;;5.60;99.90;;;;;;5119100;27;20042;-65
2022/01/24 09:28:39;;;;;;;54.03;34.85;;;5.70;99.90;;;;;;5122589;27;20504;-65
2022/01/24 09:31:04;;;;;;;58.70;35.95;;;5.70;99.90;;;;;;5093873;27;20050;-64
2022/01/24 09:33:30;;;;;;;62.17;36.28;;;5.60;99.90;;;;;;5116093;28;20064;-64
2022/01/24 09:35:59;;;;;;;59.67;36.50;;;5.60;99.90;;;;;;5106973;27;20129;-65
2022/01/24 09:38:31;;;;;;;58.75;35.92;;;5.60;99.90;;;;;;5123853;27;20075;-65
2022/01/24 09:40:59;;;;;;;61.55;39.20;;;5.70;99.90;;;;;;5115908;27;20047;-65
2022/01/24 09:43:25;;;;;;;67.18;38.40;;;5.70;99.90;;;;;;5142878;27;20067;-65
2022/01/24 09:45:51;;;;;;;63.28;37.28;;;5.70;99.90;;;;;;5114239;27;20058;-65
2022/01/24 09:48:17;;;;;;;63.78;37.55;;;5.70;99.90;;;;;;5144076;27;20246;-65
2022/01/24 09:50:45;;;;;;;64.07;38.50;;;5.70;99.90;;;;;;5106404;27;20067;-65
2022/01/24 09:53:13;;;;;;;69.05;39.00;;;5.70;99.90;;;;;;5118983;27;20431;-65
2022/01/24 09:55:39;;;;;;;60.70;37.55;;;5.80;99.90;;;;;;5107200;27;20054;-65
2022/01/24 09:58:05;;;;;;;70.10;42.25;;;5.80;99.90;;;;;;5133443;27;20075;-64
2022/01/24 10:00:31;;;;;;;70.82;42.78;;;5.80;99.90;;;;;;5109488;27;20040;-65
2022/01/24 10:02:58;;;;;;;71.22;44.92;;;5.90;99.90;;;;;;5151551;27;20031;-64
2022/01/24 10:05:37;;;;;;;68.88;44.55;;;5.80;99.90;;;;;;5090488;28;20101;-64
2022/01/24 10:08:12;;;;;;;69.47;40.83;;;5.90;99.90;;;;;;5090873;28;20530;-65
2022/01/24 10:11:09;;;;;;;65.43;38.85;;;5.80;99.90;;;;;;5108727;27;20050;-64
2022/01/24 10:16:30;;;;;;;67.03;40.22;;;5.80;99.90;;;;;;5119575;27;20046;-64
2022/01/24 10:19:15;;;;;;;66.80;41.03;;;5.70;99.90;;;;;;5125619;27;20168;-65
2022/01/24 10:21:50;;;;;;;65.00;40.38;;;5.80;99.90;;;;;;5126964;27;20570;-64
2022/01/24 10:24:41;;;;;;;69.68;40.92;;;5.80;99.90;;;;;;5119457;27;20055;-65
2022/01/24 10:27:15;;;;;;;70.30;40.47;;;5.80;99.90;;;;;;5121647;27;20141;-65
2022/01/24 10:29:49;;;;;;;67.32;38.92;;;5.90;99.90;;;;;;5119537;27;20082;-64
2022/01/24 10:32:43;;;;;;;66.45;40.15;;;5.80;99.90;;;;;;5135446;27;20050;-65
2022/01/24 10:35:31;;;;;;;64.30;39.00;;;5.80;99.90;;;;;;5103298;28;20063;-65
2022/01/24 10:39:05;;;;;;;68.93;40.85;;;5.80;99.90;;;;;;5131839;27;20111;-65
2022/01/24 10:41:39;;;;;;;65.93;38.30;;;5.90;99.90;;;;;;5094343;27;20043;-65
2022/01/24 10:44:08;;;;;;;64.43;38.05;;;6.00;99.90;;;;;;5117603;27;20047;-64
2022/01/24 10:46:34;;;;;;;66.63;38.08;;;6.20;99.90;;;;;;5115764;27;20085;-64
2022/01/24 10:49:06;;;;;;;70.50;39.80;;;6.20;99.90;;;;;;5127179;28;20040;-65
2022/01/24 10:51:38;;;;;;;67.43;39.40;;;6.10;99.90;;;;;;5118108;27;20062;-64
2022/01/24 10:54:03;;;;;;;61.90;37.28;;;6.00;99.90;;;;;;5121959;28;20059;-65
2022/01/24 10:56:43;;;;;;;63.15;39.40;;;6.10;99.90;;;;;;5114402;27;20055;-65
2022/01/24 10:59:21;;;;;;;65.93;38.92;;;6.10;99.90;;;;;;5113265;28;20035;-65
2022/01/24 11:01:56;;;;;;;65.53;39.15;;;6.00;99.90;;;;;;5115260;27;20054;-65
2022/01/24 11:04:28;;;;;;;67.18;40.63;;;5.90;99.90;;;;;;5120989;28;20074;-65
2022/01/24 11:07:01;;;;;;;64.57;39.33;;;5.90;99.90;;;;;;5118839;27;20476;-65
2022/01/24 11:09:35;;;;;;;64.70;40.47;;;6.00;99.90;;;;;;5126857;27;20153;-64
2022/01/24 11:12:05;;;;;;;64.90;40.25;;;5.90;99.90;;;;;;5142326;27;20077;-64
2022/01/24 11:14:32;;;;;;;64.90;40.67;;;5.90;99.90;;;;;;5140954;27;20501;-64
2022/01/24 11:16:59;;;;;;;65.80;38.63;;;5.80;99.90;;;;;;5125270;27;20460;-64
2022/01/24 11:19:30;;;;;;;64.60;40.00;;;5.80;99.90;;;;;;5118649;28;20516;-64
2022/01/24 11:22:04;;;;;;;66.03;39.60;;;5.80;99.90;;;;;;5106839;27;20126;-64
2022/01/24 11:24:44;;;;;;;64.40;39.15;;;5.90;99.90;;;;;;5118125;28;20044;-64
2022/01/24 11:27:10;;;;;;;64.45;40.55;;;5.90;99.90;;;;;;5116742;27;20046;-65
2022/01/24 11:29:37;;;;;;;67.07;40.85;;;5.80;99.90;;;;;;5119551;28;20047;-65
2022/01/24 11:32:24;;;;;;;66.07;42.00;;;5.80;99.90;;;;;;5106719;27;20062;-66
2022/01/24 11:34:52;;;;;;;64.82;41.33;;;5.90;99.90;;;;;;5118648;28;20346;-65
2022/01/24 11:37:50;;;;;;;65.88;42.03;;;5.90;99.90;;;;;;5113429;28;20137;-64
2022/01/24 11:40:20;;;;;;;71.15;43.50;;;5.80;99.90;;;;;;5076106;28;20370;-64
2022/01/24 11:42:47;;;;;;;65.57;41.40;;;5.70;99.90;;;;;;5064235;28;20237;-64
2022/01/24 11:45:17;;;;;;;69.03;41.60;;;5.70;99.90;;;;;;5090966;28;20082;-64
2022/01/24 11:47:46;;;;;;;63.67;38.97;;;5.70;99.90;;;;;;5065995;28;20056;-64
2022/01/24 11:50:24;;;;;;;65.60;40.83;;;5.90;99.90;;;;;;5074631;28;20040;-64
2022/01/24 11:52:55;;;;;;;66.50;41.58;;;5.90;99.90;;;;;;5052832;28;20040;-65
2022/01/24 11:55:36;;;;;;;66.32;39.90;;;5.90;99.90;;;;;;5095180;28;20091;-65
2022/01/24 11:58:07;;;;;;;69.78;41.35;;;5.90;99.90;;;;;;5061297;28;20063;-64
2022/01/24 12:00:44;;;;;;;70.90;42.38;;;5.80;99.90;;;;;;5075135;28;20044;-65
2022/01/24 12:03:23;;;;;;;68.97;41.85;;;5.80;99.90;;;;;;5081892;28;20137;-64
2022/01/24 12:05:53;;;;;;;68.68;41.72;;;5.60;99.90;;;;;;5089337;28;20102;-64
2022/01/24 12:08:59;;;;;;;69.13;42.20;;;5.60;99.90;;;;;;5084396;28;20048;-64
2022/01/24 12:11:30;;;;;;;70.22;40.67;;;5.60;99.90;;;;;;5064845;28;20055;-65
2022/01/24 12:14:02;;;;;;;70.72;41.95;;;5.50;99.90;;;;;;5066320;28;20101;-65
2022/01/24 12:16:36;;;;;;;70.68;43.33;;;5.50;99.90;;;;;;5109790;27;20043;-65
2022/01/24 12:19:05;;;;;;;76.07;44.53;;;5.50;99.90;;;;;;5139014;27;20059;-65
2022/01/24 12:21:36;;;;;;;69.55;41.00;;;5.50;99.90;;;;;;5113169;27;20058;-65
2022/01/24 12:24:06;;;;;;;72.07;43.55;;;5.60;99.90;;;;;;5144758;27;20050;-65
2022/01/24 12:26:35;;;;;;;73.63;43.40;;;5.50;99.90;;;;;;5114130;27;20047;-65
2022/01/24 12:29:06;;;;;;;71.90;43.90;;;5.50;99.90;;;;;;5122975;27;20048;-65
2022/01/24 12:31:46;;;;;;;;;;;5.50;99.90;;;;;;5100757;27;20457;-65
2022/01/24 12:34:14;;;;;;;74.95;41.72;;;5.50;99.90;;;;;;5127763;27;19920;-65
2022/01/24 12:36:52;;;;;;;74.80;42.13;;;5.50;99.90;;;;;;5105947;27;20070;-64
2022/01/24 12:39:34;;;;;;;68.43;40.72;;;5.50;99.90;;;;;;5119182;27;20036;-65
2022/01/24 12:42:18;;;;;;;69.00;41.95;;;5.50;99.90;;;;;;5110382;27;20434;-64
2022/01/24 12:47:15;;;;;;;64.25;39.72;;;5.50;99.90;;;;;;5114827;27;20046;-65
2022/01/24 12:49:43;;;;;;;64.63;39.30;;;5.50;99.90;;;;;;5126801;27;20070;-64
2022/01/24 12:52:15;;;;;;;64.75;39.72;;;5.50;99.90;;;;;;5124124;27;20035;-65
2022/01/24 12:54:46;;;;;;;67.38;39.85;;;5.60;99.90;;;;;;5133356;27;20064;-65
2022/01/24 12:57:15;;;;;;;66.40;39.95;;;5.60;99.90;;;;;;5124360;27;20272;-65
2022/01/24 12:59:55;;;;;;;68.45;40.67;;;5.60;99.90;;;;;;5125111;27;20051;-64
2022/01/24 13:02:26;;;;;;;71.10;40.63;;;5.50;99.90;;;;;;5121907;27;20046;-64
2022/01/24 13:04:58;;;;;;;60.65;37.00;;;5.40;99.90;;;;;;5123760;27;20055;-65
2022/01/24 13:07:24;;;;;;;65.00;39.08;;;5.60;99.90;;;;;;5127683;27;20528;-65
2022/01/24 13:09:49;;;;;;;64.45;39.47;;;5.50;99.90;;;;;;5125492;27;20146;-64
2022/01/24 13:12:15;;;;;;;69.45;42.17;;;5.70;99.90;;;;;;5124883;27;20050;-64
2022/01/24 13:25:29;;;;;;;67.30;40.78;;;5.40;99.90;;;;;;5119962;27;20636;-63
2022/01/24 13:27:57;;;;;;;74.13;42.47;;;5.50;99.90;;;;;;5119182;27;20058;-65
2022/01/24 13:30:38;;;;;;;71.03;41.88;;;5.40;99.90;;;;;;5112139;28;20051;-65
2022/01/24 13:33:06;;;;;;;72.05;43.35;;;5.40;99.90;;;;;;5126521;27;20059;-65
2022/01/24 13:35:40;;;;;;;68.32;41.85;;;5.30;99.90;;;;;;5121954;27;20055;-65
2022/01/24 13:38:12;;;;;;;65.18;39.55;;;5.30;99.90;;;;;;5129524;27;20164;-65
2022/01/24 13:40:53;;;;;;;62.28;38.72;;;5.30;99.90;;;;;;5118698;28;20035;-65
2022/01/24 13:44:00;;;;;;;60.72;37.80;;;5.40;99.90;;;;;;5121197;27;20366;-65
2022/01/24 13:46:35;;;;;;;64.47;39.35;;;5.40;99.90;;;;;;5041612;28;20091;-66
2022/01/24 13:49:02;;;;;;;63.22;39.05;;;5.50;99.90;;;;;;5037822;28;20055;-65
2022/01/24 13:51:44;;;;;;;69.93;41.60;;;5.40;99.90;;;;;;5046244;28;20045;-65
2022/01/24 13:54:28;;;;;;;70.10;41.25;;;5.40;99.90;;;;;;5041556;28;20045;-65
2022/01/24 13:56:56;;;;;;;65.55;40.40;;;5.40;99.90;;;;;;5041519;28;20048;-66
2022/01/24 13:59:25;;;;;;;61.78;37.05;;;5.30;99.90;;;;;;5042591;28;20086;-65
2022/01/24 14:02:14;;;;;;;56.00;34.97;;;5.40;99.90;;;;;;5039462;28;20225;-66
2022/01/24 14:04:52;;;;;;;58.80;37.45;;;5.40;99.90;;;;;;5036565;28;20064;-65
2022/01/24 14:07:28;;;;;;;67.85;40.00;;;5.30;99.90;;;;;;5042817;28;20631;-65
2022/01/24 14:10:01;;;;;;;60.38;36.95;;;5.40;99.90;;;;;;5058396;28;20037;-65
2022/01/24 14:12:31;;;;;;;50.08;31.85;;;5.50;99.90;;;;;;5021324;28;20064;-65
2022/01/24 14:15:07;;;;;;;45.72;31.98;;;5.60;99.90;;;;;;5026806;28;20061;-65
2022/01/24 14:20:09;;;;;;;49.97;33.05;;;5.50;99.90;;;;;;5073760;28;20079;-65
2022/01/24 14:22:51;;;;;;;49.83;34.15;;;5.50;99.90;;;;;;5125954;27;20081;-65
2022/01/24 14:25:29;;;;;;;52.60;36.50;;;5.50;99.90;;;;;;5124472;27;20047;-65
2022/01/24 14:27:58;;;;;;;49.70;34.25;;;5.40;99.90;;;;;;5122342;27;20050;-65
2022/01/24 14:30:27;;;;;;;53.75;35.33;;;5.30;99.90;;;;;;5119582;27;20463;-65
2022/01/24 14:33:28;;;;;;;53.50;34.17;;;5.30;99.90;;;;;;5090718;27;20089;-65
2022/01/24 14:36:02;;;;;;;57.75;36.88;;;5.30;99.90;;;;;;5150769;27;20070;-65
2022/01/24 14:38:35;;;;;;;51.60;35.08;;;5.30;99.90;;;;;;5123081;27;20053;-65
2022/01/24 14:41:07;;;;;;;53.13;36.50;;;5.30;99.90;;;;;;5109276;28;20103;-65
2022/01/24 14:46:24;;;;;;;50.78;34.38;;;5.10;99.90;;;;;;5140928;27;20047;-65
2022/01/24 14:49:05;;;;;;;49.85;34.90;;;5.20;99.90;;;;;;5107783;28;20149;-66
2022/01/24 14:51:34;;;;;;;47.60;34.30;;;5.20;99.90;;;;;;5147185;27;20091;-65
2022/01/24 14:54:05;;;;;;;46.97;34.22;;;5.20;99.90;;;;;;5137910;27;20040;-65